Time;durP1;ratioP1;P1;durP2;ratioP2;P2;SDS_P1;SDS_P2;PMS_P1;PMS_P2;Temp;Humidity;BMP_temperature;BMP_pressure;BME280_temperature;BME280_humidity;BME280_pressure;Samples;Min_cycle;Max_cycle;Signal;HPM_P1;HPM_P2
2022/09/17 00:01:34;;;;;;;6.22;3.45;;;;;;;;;;5013092;28;20351;-68
2022/09/17 00:04:03;;;;;;;4.95;3.25;;;;;;;;;;5031196;28;20397;-68
2022/09/17 00:06:29;;;;;;;6.47;2.95;;;;;;;;;;5031221;28;20047;-68
2022/09/17 00:08:55;;;;;;;5.72;3.30;;;;;;;;;;5012962;28;20343;-70
2022/09/17 00:11:26;;;;;;;5.70;3.17;;;;;;;;;;5031001;28;20032;-68
2022/09/17 00:13:52;;;;;;;5.28;3.53;;;;;;;;;;5031108;28;20489;-68
2022/09/17 00:16:30;;;;;;;5.05;3.15;;;;;;;;;;4997215;28;20450;-68
2022/09/17 00:18:56;;;;;;;6.20;3.43;;;;;;;;;;5010840;28;20339;-68
2022/09/17 00:21:22;;;;;;;5.35;3.00;;;;;;;;;;4993218;28;20285;-68
2022/09/17 00:23:48;;;;;;;4.18;2.92;;;;;;;;;;5010779;28;20428;-68
2022/09/17 00:26:42;;;;;;;4.70;2.70;;;;;;;;;;4993022;28;20453;-68
2022/09/17 00:29:56;;;;;;;4.75;3.10;;;;;;;;;;4975835;28;20124;-68
2022/09/17 00:33:02;;;;;;;5.78;3.63;;;;;;;;;;4940237;28;20353;-68
2022/09/17 00:35:28;;;;;;;5.93;3.10;;;;;;;;;;4948842;28;20441;-68
2022/09/17 00:37:54;;;;;;;5.95;3.33;;;;;;;;;;4933122;28;20056;-68
2022/09/17 00:40:20;;;;;;;7.15;4.00;;;;;;;;;;4948939;28;20433;-68
2022/09/17 00:42:46;;;;;;;5.00;3.10;;;;;;;;;;4932730;28;20458;-68
2022/09/17 00:45:12;;;;;;;4.65;3.10;;;;;;;;;;4933809;28;20322;-68
2022/09/17 00:47:43;;;;;;;5.15;3.03;;;;;;;;;;4932896;28;20104;-68
2022/09/17 00:50:14;;;;;;;5.25;3.25;;;;;;;;;;4933067;28;20038;-68
2022/09/17 00:52:43;;;;;;;7.32;2.97;;;;;;;;;;4932816;28;20471;-68
2022/09/17 00:55:12;;;;;;;;;;;;;;;;;;4949138;28;20388;-68
2022/09/17 00:57:37;;;;;;;;;;;;;;;;;;4933136;28;20351;-68
2022/09/17 01:00:04;;;;;;;4.28;2.80;;;;;;;;;;4948731;28;20320;-68
2022/09/17 01:02:29;;;;;;;5.63;3.08;;;;;;;;;;4954955;28;20349;-68
2022/09/17 01:04:55;;;;;;;4.85;2.80;;;;;;;;;;4995445;28;20340;-68
2022/09/17 01:07:38;;;;;;;5.18;2.75;;;;;;;;;;4990063;28;20330;-68
2022/09/17 01:10:11;;;;;;;5.35;2.90;;;;;;;;;;4972051;28;20436;-68
2022/09/17 01:13:15;;;;;;;5.05;3.33;;;;;;;;;;4972214;28;20379;-68
2022/09/17 01:16:01;;;;;;;6.88;3.55;;;;;;;;;;4909644;28;20054;-68
2022/09/17 01:18:42;;;;;;;7.75;3.58;;;;;;;;;;5024996;28;20509;-68
2022/09/17 01:21:35;;;;;;;6.20;2.92;;;;;;;;;;5011603;28;20036;-68
2022/09/17 01:24:39;;;;;;;8.07;3.95;;;;;;;;;;5011453;28;20486;-68
2022/09/17 01:27:10;;;;;;;21.05;6.70;;;;;;;;;;5011462;28;20362;-68
2022/09/17 01:29:57;;;;;;;12.30;6.00;;;;;;;;;;5030304;28;20389;-68
2022/09/17 01:32:32;;;;;;;18.67;7.50;;;;;;;;;;5031367;28;20418;-68
2022/09/17 01:35:06;;;;;;;9.52;4.35;;;;;;;;;;5029774;28;20394;-68
2022/09/17 01:38:01;;;;;;;11.27;4.60;;;;;;;;;;5029992;28;20490;-68
2022/09/17 01:40:31;;;;;;;10.75;5.72;;;;;;;;;;5011911;28;20433;-68
2022/09/17 01:43:03;;;;;;;12.27;5.57;;;;;;;;;;5029402;28;20024;-67
2022/09/17 01:45:34;;;;;;;11.38;5.68;;;;;;;;;;5029482;28;20382;-68
2022/09/17 01:48:05;;;;;;;11.85;5.95;;;;;;;;;;5010482;28;20043;-68
2022/09/17 01:50:36;;;;;;;9.63;5.35;;;;;;;;;;5011366;28;20068;-68
2022/09/17 01:53:02;;;;;;;17.98;6.38;;;;;;;;;;5011214;28;20320;-68
2022/09/17 01:55:31;;;;;;;11.02;5.57;;;;;;;;;;5010926;28;20424;-68
2022/09/17 01:58:02;;;;;;;12.65;6.15;;;;;;;;;;5010944;28;20354;-68
2022/09/17 02:00:28;;;;;;;13.05;6.13;;;;;;;;;;5010595;28;20425;-68
2022/09/17 02:03:01;;;;;;;10.43;5.70;;;;;;;;;;5010876;28;20417;-68
2022/09/17 02:05:47;;;;;;;10.35;5.05;;;;;;;;;;5010769;28;20115;-68
2022/09/17 02:08:19;;;;;;;14.55;6.30;;;;;;;;;;5016011;28;20329;-68
2022/09/17 02:10:48;;;;;;;11.88;5.55;;;;;;;;;;5010935;28;20425;-68
2022/09/17 02:13:18;;;;;;;11.32;5.20;;;;;;;;;;5010428;28;20175;-68
2022/09/17 02:15:49;;;;;;;13.30;5.07;;;;;;;;;;5006821;28;20352;-68
2022/09/17 02:18:36;;;;;;;13.20;5.82;;;;;;;;;;5006818;28;20047;-68
2022/09/17 02:21:20;;;;;;;32.90;10.10;;;;;;;;;;5008615;28;20446;-68
2022/09/17 02:24:10;;;;;;;27.70;8.95;;;;;;;;;;5007789;28;20455;-68
2022/09/17 02:26:38;;;;;;;24.25;9.13;;;;;;;;;;5008858;28;20025;-68
2022/09/17 02:29:09;;;;;;;18.05;7.65;;;;;;;;;;5008915;28;20362;-69
2022/09/17 02:31:34;;;;;;;16.38;7.53;;;;;;;;;;5006898;28;20406;-68
2022/09/17 02:34:01;;;;;;;15.95;6.90;;;;;;;;;;5007045;28;20051;-68
2022/09/17 02:36:27;;;;;;;12.50;6.97;;;;;;;;;;5006817;28;20530;-68
2022/09/17 02:39:00;;;;;;;12.02;5.90;;;;;;;;;;5006773;28;20518;-68
2022/09/17 02:41:39;;;;;;;11.88;6.13;;;;;;;;;;5007253;28;20459;-68
2022/09/17 02:44:23;;;;;;;12.82;6.03;;;;;;;;;;5008212;28;20067;-68
2022/09/17 02:47:03;;;;;;;10.60;4.97;;;;;;;;;;5006507;28;20386;-68
2022/09/17 02:49:48;;;;;;;11.52;5.82;;;;;;;;;;5006596;28;20451;-68
2022/09/17 02:52:23;;;;;;;14.32;6.53;;;;;;;;;;4990089;28;20355;-68
2022/09/17 02:55:03;;;;;;;13.63;6.78;;;;;;;;;;5008068;28;20444;-68
2022/09/17 02:57:53;;;;;;;14.70;7.15;;;;;;;;;;5008016;28;20040;-68
2022/09/17 03:00:20;;;;;;;14.13;6.75;;;;;;;;;;5006366;28;20559;-68
2022/09/17 03:03:03;;;;;;;13.23;5.80;;;;;;;;;;5006362;28;20490;-68
2022/09/17 03:05:28;;;;;;;14.63;6.57;;;;;;;;;;5006231;28;20469;-68
2022/09/17 03:07:55;;;;;;;14.65;6.53;;;;;;;;;;5006374;28;20435;-68
2022/09/17 03:10:21;;;;;;;21.73;8.77;;;;;;;;;;5006219;28;20447;-68
2022/09/17 03:12:47;;;;;;;20.10;7.60;;;;;;;;;;5008114;28;20340;-68
2022/09/17 03:15:12;;;;;;;18.83;7.25;;;;;;;;;;5013698;28;20075;-68
2022/09/17 03:17:38;;;;;;;17.42;7.10;;;;;;;;;;5009311;28;20439;-68
2022/09/17 03:20:04;;;;;;;20.58;7.63;;;;;;;;;;5009928;28;20458;-68
2022/09/17 03:22:29;;;;;;;29.13;9.02;;;;;;;;;;5009568;28;20370;-68
2022/09/17 03:24:55;;;;;;;29.77;8.80;;;;;;;;;;5029136;28;20420;-68
2022/09/17 03:27:20;;;;;;;20.73;7.82;;;;;;;;;;5027817;28;20358;-68
2022/09/17 03:29:45;;;;;;;25.45;8.93;;;;;;;;;;5026673;28;20051;-68
2022/09/17 03:32:11;;;;;;;22.92;8.05;;;;;;;;;;5027963;28;20429;-68
2022/09/17 03:34:36;;;;;;;14.65;6.68;;;;;;;;;;5009307;28;20463;-68
2022/09/17 03:37:01;;;;;;;17.15;7.20;;;;;;;;;;5027479;28;20394;-68
2022/09/17 03:39:28;;;;;;;14.77;6.20;;;;;;;;;;5027716;28;20424;-68
2022/09/17 03:41:53;;;;;;;15.18;6.47;;;;;;;;;;5027883;28;20493;-68
2022/09/17 03:44:20;;;;;;;22.83;8.27;;;;;;;;;;5009037;28;20522;-68
2022/09/17 03:46:45;;;;;;;28.15;9.40;;;;;;;;;;5027241;28;20355;-68
2022/09/17 03:49:10;;;;;;;16.92;7.53;;;;;;;;;;5027768;28;20386;-68
2022/09/17 03:51:36;;;;;;;15.57;6.82;;;;;;;;;;5028807;28;20365;-68
2022/09/17 03:54:02;;;;;;;15.10;6.35;;;;;;;;;;5027377;28;20529;-68
2022/09/17 03:56:27;;;;;;;14.18;6.60;;;;;;;;;;5027347;28;20024;-68
2022/09/17 03:58:59;;;;;;;15.82;6.90;;;;;;;;;;5027571;28;20059;-68
2022/09/17 04:01:25;;;;;;;14.18;6.03;;;;;;;;;;5009413;28;20434;-68
2022/09/17 04:03:50;;;;;;;14.43;6.10;;;;;;;;;;5027147;28;20511;-68
2022/09/17 04:06:16;;;;;;;13.10;6.13;;;;;;;;;;5009166;28;20529;-68
2022/09/17 04:08:42;;;;;;;14.63;6.30;;;;;;;;;;5027095;28;20024;-68
2022/09/17 04:11:08;;;;;;;12.73;5.35;;;;;;;;;;5009340;28;20417;-68
2022/09/17 04:13:33;;;;;;;15.23;5.82;;;;;;;;;;4992261;28;20412;-68
2022/09/17 04:15:58;;;;;;;11.77;6.13;;;;;;;;;;5005351;28;20359;-68
2022/09/17 04:18:24;;;;;;;12.43;5.95;;;;;;;;;;5007057;28;20033;-68
2022/09/17 04:20:49;;;;;;;10.50;5.88;;;;;;;;;;5007031;28;20443;-68
2022/09/17 04:23:15;;;;;;;16.08;6.22;;;;;;;;;;5007207;28;20317;-68
2022/09/17 04:25:40;;;;;;;11.73;5.85;;;;;;;;;;5007042;28;20051;-68
2022/09/17 04:28:06;;;;;;;13.38;6.13;;;;;;;;;;5005873;28;20478;-68
2022/09/17 04:30:31;;;;;;;13.43;6.00;;;;;;;;;;5007485;28;20508;-68
2022/09/17 04:32:57;;;;;;;12.38;5.32;;;;;;;;;;5007183;28;20505;-68
2022/09/17 04:35:22;;;;;;;12.35;5.60;;;;;;;;;;5007240;28;20025;-68
2022/09/17 04:37:52;;;;;;;12.80;5.78;;;;;;;;;;5007109;28;20462;-68
2022/09/17 04:40:17;;;;;;;13.32;5.85;;;;;;;;;;5006907;28;20463;-68
2022/09/17 04:42:42;;;;;;;16.75;6.80;;;;;;;;;;5010556;28;20443;-68
2022/09/17 04:45:08;;;;;;;13.88;6.53;;;;;;;;;;5010726;28;20383;-68
2022/09/17 04:47:37;;;;;;;16.33;6.38;;;;;;;;;;5010328;28;20431;-68
2022/09/17 04:50:02;;;;;;;;;;;;;;;;;;5011676;28;20051;-67
2022/09/17 04:52:28;;;;;;;11.07;5.82;;;;;;;;;;5012581;28;19908;-68
2022/09/17 04:54:53;;;;;;;14.23;6.35;;;;;;;;;;5008730;28;20043;-68
2022/09/17 04:57:18;;;;;;;12.57;6.18;;;;;;;;;;5010195;28;20428;-68
2022/09/17 04:59:44;;;;;;;10.60;5.78;;;;;;;;;;5011741;28;20502;-68
2022/09/17 05:02:09;;;;;;;15.52;6.55;;;;;;;;;;5010734;28;20519;-68
2022/09/17 05:04:34;;;;;;;15.05;6.85;;;;;;;;;;5010567;28;20461;-68
2022/09/17 05:07:00;;;;;;;12.65;6.05;;;;;;;;;;5011180;28;20443;-68
2022/09/17 05:09:25;;;;;;;13.18;6.20;;;;;;;;;;5025072;28;20127;-68
2022/09/17 05:11:51;;;;;;;13.00;6.25;;;;;;;;;;5010175;28;20390;-68
2022/09/17 05:14:16;;;;;;;12.63;5.88;;;;;;;;;;5010160;28;20478;-67
2022/09/17 05:16:41;;;;;;;10.45;5.63;;;;;;;;;;5027485;28;20371;-68
2022/09/17 05:19:07;;;;;;;10.55;5.10;;;;;;;;;;5031175;28;20426;-68
2022/09/17 05:21:32;;;;;;;11.38;6.07;;;;;;;;;;5029688;28;20454;-67
2022/09/17 05:23:57;;;;;;;11.60;5.88;;;;;;;;;;5030286;28;20425;-68
2022/09/17 05:26:23;;;;;;;10.38;5.32;;;;;;;;;;5030764;28;20439;-68
2022/09/17 05:28:48;;;;;;;11.35;5.00;;;;;;;;;;5012008;28;20461;-67
2022/09/17 05:31:13;;;;;;;10.85;5.55;;;;;;;;;;5030692;28;20335;-67
2022/09/17 05:33:39;;;;;;;9.27;5.22;;;;;;;;;;5029667;28;20505;-67
2022/09/17 05:36:04;;;;;;;9.85;5.45;;;;;;;;;;5029677;28;20632;-68
2022/09/17 05:38:30;;;;;;;10.25;5.50;;;;;;;;;;4994535;28;20359;-68
2022/09/17 05:40:55;;;;;;;9.05;4.78;;;;;;;;;;5029483;28;20343;-68
2022/09/17 05:43:20;;;;;;;9.73;5.22;;;;;;;;;;5029431;28;20482;-68
2022/09/17 05:45:46;;;;;;;11.07;5.43;;;;;;;;;;5029857;28;20500;-67
2022/09/17 05:48:13;;;;;;;11.38;5.20;;;;;;;;;;5029332;28;20383;-68
2022/09/17 05:50:39;;;;;;;12.02;5.20;;;;;;;;;;5010897;28;20458;-68
2022/09/17 05:53:06;;;;;;;9.98;5.30;;;;;;;;;;5028656;28;20472;-68
2022/09/17 05:55:32;;;;;;;10.05;5.00;;;;;;;;;;5031271;28;20050;-67
2022/09/17 05:57:57;;;;;;;12.35;5.25;;;;;;;;;;5029213;28;20435;-67
2022/09/17 06:00:22;;;;;;;11.25;5.90;;;;;;;;;;5029913;28;20334;-68
2022/09/17 06:02:54;;;;;;;11.77;5.78;;;;;;;;;;5028914;28;20339;-68
2022/09/17 06:05:20;;;;;;;8.95;4.63;;;;;;;;;;5028902;28;20399;-67
2022/09/17 06:07:45;;;;;;;9.63;5.85;;;;;;;;;;5029036;28;20458;-67
2022/09/17 06:10:10;;;;;;;8.52;4.72;;;;;;;;;;4998938;28;20432;-68
2022/09/17 06:12:36;;;;;;;9.73;4.95;;;;;;;;;;5028595;28;20435;-68
2022/09/17 06:15:03;;;;;;;11.73;5.55;;;;;;;;;;5029343;28;20411;-68
2022/09/17 06:17:32;;;;;;;8.68;4.97;;;;;;;;;;5029890;28;20383;-68
2022/09/17 06:19:57;;;;;;;;;;;;;;;;;;5030789;28;20434;-68
2022/09/17 06:22:23;;;;;;;9.13;5.03;;;;;;;;;;5011889;28;20312;-68
2022/09/17 06:24:48;;;;;;;9.25;5.20;;;;;;;;;;5028924;28;20312;-68
2022/09/17 06:27:14;;;;;;;8.90;4.63;;;;;;;;;;5028662;28;20541;-68
2022/09/17 06:29:39;;;;;;;7.97;4.97;;;;;;;;;;5028581;28;20387;-68
2022/09/17 06:32:09;;;;;;;9.73;4.72;;;;;;;;;;5028476;28;20111;-67
2022/09/17 06:34:35;;;;;;;9.25;4.07;;;;;;;;;;5010370;28;20312;-67
2022/09/17 06:37:00;;;;;;;12.68;4.00;;;;;;;;;;5029326;28;20334;-68
2022/09/17 06:39:25;;;;;;;7.68;4.22;;;;;;;;;;5028292;28;20522;-67
2022/09/17 06:41:51;;;;;;;8.43;4.00;;;;;;;;;;5028301;28;20150;-68
2022/09/17 06:44:16;;;;;;;6.68;3.40;;;;;;;;;;5030268;28;20506;-67
2022/09/17 06:46:43;;;;;;;7.53;4.05;;;;;;;;;;5028066;28;20431;-68
2022/09/17 06:49:08;;;;;;;6.18;3.60;;;;;;;;;;5029375;28;20439;-68
2022/09/17 06:51:33;;;;;;;5.20;3.60;;;;;;;;;;5028177;28;20534;-68
2022/09/17 06:54:00;;;;;;;8.13;3.90;;;;;;;;;;5028050;28;20504;-67
2022/09/17 06:56:25;;;;;;;5.20;2.92;;;;;;;;;;5028033;28;20028;-67
2022/09/17 06:58:51;;;;;;;6.43;3.42;;;;;;;;;;5028354;28;20464;-68
2022/09/17 07:01:17;;;;;;;4.97;2.90;;;;;;;;;;5009709;28;20024;-68
2022/09/17 07:03:42;;;;;;;6.63;2.80;;;;;;;;;;5027702;28;20051;-67
2022/09/17 07:06:09;;;;;;;4.95;3.03;;;;;;;;;;5027908;28;20393;-68
2022/09/17 07:08:35;;;;;;;6.40;3.50;;;;;;;;;;5028737;28;20474;-68
2022/09/17 07:11:00;;;;;;;5.57;3.30;;;;;;;;;;5009597;28;20350;-67
2022/09/17 07:13:25;;;;;;;7.20;3.70;;;;;;;;;;5028282;28;20032;-68
2022/09/17 07:15:55;;;;;;;6.72;3.78;;;;;;;;;;5006395;28;20374;-67
2022/09/17 07:18:22;;;;;;;6.70;3.78;;;;;;;;;;5007818;28;20350;-68
2022/09/17 07:21:01;;;;;;;6.80;3.45;;;;;;;;;;5007746;28;20410;-68
2022/09/17 07:23:32;;;;;;;8.10;3.50;;;;;;;;;;5006453;28;20411;-67
2022/09/17 07:26:09;;;;;;;7.68;3.47;;;;;;;;;;5007649;28;20408;-68
2022/09/17 07:28:34;;;;;;;14.38;3.85;;;;;;;;;;5006530;28;20033;-67
2022/09/17 07:31:03;;;;;;;6.20;3.53;;;;;;;;;;5005816;28;20447;-67
2022/09/17 07:33:29;;;;;;;8.95;4.07;;;;;;;;;;5006503;28;20079;-68
2022/09/17 07:35:56;;;;;;;8.13;3.63;;;;;;;;;;5008030;28;20107;-67
2022/09/17 07:38:21;;;;;;;4.80;2.88;;;;;;;;;;5005947;28;20458;-67
2022/09/17 07:40:58;;;;;;;4.63;2.75;;;;;;;;;;5022275;28;20443;-67
2022/09/17 07:43:25;;;;;;;6.60;2.75;;;;;;;;;;4989305;28;20371;-68
2022/09/17 07:45:51;;;;;;;7.85;3.00;;;;;;;;;;5007758;28;20032;-67
2022/09/17 07:48:17;;;;;;;5.93;3.28;;;;;;;;;;5005981;28;20553;-67
2022/09/17 07:50:42;;;;;;;5.28;2.67;;;;;;;;;;5007433;28;20485;-67
2022/09/17 07:53:07;;;;;;;5.75;3.17;;;;;;;;;;5007279;28;20051;-67
2022/09/17 07:55:33;;;;;;;5.10;2.55;;;;;;;;;;5007436;28;20048;-67
2022/09/17 07:57:58;;;;;;;5.75;2.72;;;;;;;;;;5007249;28;20431;-68
2022/09/17 08:00:24;;;;;;;5.35;2.40;;;;;;;;;;5007386;28;20160;-68
2022/09/17 08:02:55;;;;;;;9.57;2.47;;;;;;;;;;5007416;28;20499;-67
2022/09/17 08:05:22;;;;;;;6.80;3.10;;;;;;;;;;5007246;28;20403;-67
2022/09/17 08:07:50;;;;;;;4.00;1.92;;;;;;;;;;5007223;28;20425;-67
2022/09/17 08:10:20;;;;;;;;;;;;;;;;;;5007692;28;20056;-67
2022/09/17 08:12:48;;;;;;;3.55;1.70;;;;;;;;;;5008271;28;19913;-67
2022/09/17 08:15:17;;;;;;;2.45;1.63;;;;;;;;;;5013679;28;20481;-67
2022/09/17 08:17:46;;;;;;;5.05;2.22;;;;;;;;;;5032200;28;20296;-68
2022/09/17 08:20:12;;;;;;;2.72;1.80;;;;;;;;;;5012609;28;20541;-67
2022/09/17 08:22:37;;;;;;;5.00;2.33;;;;;;;;;;5031075;28;20502;-67
2022/09/17 08:25:04;;;;;;;4.97;2.50;;;;;;;;;;5012591;28;20481;-67
2022/09/17 08:27:30;;;;;;;3.85;1.88;;;;;;;;;;5032484;28;20454;-67
2022/09/17 08:29:55;;;;;;;4.75;2.28;;;;;;;;;;5030834;28;20458;-70
2022/09/17 08:32:21;;;;;;;4.40;2.58;;;;;;;;;;5012586;28;20467;-67
2022/09/17 08:34:46;;;;;;;4.95;2.00;;;;;;;;;;5012438;28;20127;-67
2022/09/17 08:37:11;;;;;;;4.88;2.30;;;;;;;;;;5031503;28;20441;-67
2022/09/17 08:39:36;;;;;;;3.13;2.00;;;;;;;;;;5030445;28;20443;-67
2022/09/17 08:42:17;;;;;;;4.75;1.88;;;;;;;;;;5030937;28;20473;-67
2022/09/17 08:44:44;;;;;;;5.13;1.70;;;;;;;;;;5030591;28;20462;-68
2022/09/17 08:47:30;;;;;;;3.20;1.83;;;;;;;;;;5030756;28;20311;-67
2022/09/17 08:49:57;;;;;;;3.70;1.95;;;;;;;;;;5012350;28;20462;-67
2022/09/17 08:52:37;;;;;;;4.40;1.90;;;;;;;;;;5012248;28;20327;-67
2022/09/17 08:55:05;;;;;;;6.03;2.10;;;;;;;;;;5012245;28;20119;-67
2022/09/17 08:57:47;;;;;;;3.38;1.73;;;;;;;;;;5030611;28;20354;-67
2022/09/17 09:00:16;;;;;;;5.95;1.60;;;;;;;;;;5011942;28;20435;-67
2022/09/17 09:03:01;;;;;;;3.60;2.00;;;;;;;;;;5012117;28;20427;-67
2022/09/17 09:05:32;;;;;;;3.65;1.70;;;;;;;;;;5031115;28;20387;-67
2022/09/17 09:08:33;;;;;;;3.65;1.42;;;;;;;;;;5013013;28;20362;-70
2022/09/17 09:11:02;;;;;;;3.42;1.70;;;;;;;;;;5012383;28;20116;-67
2022/09/17 09:13:35;;;;;;;4.28;1.67;;;;;;;;;;5012129;28;20409;-67
2022/09/17 09:16:11;;;;;;;2.53;1.45;;;;;;;;;;5008677;28;20492;-67
2022/09/17 09:18:39;;;;;;;1.85;1.20;;;;;;;;;;5010576;28;20504;-67
2022/09/17 09:21:20;;;;;;;2.63;1.42;;;;;;;;;;5008415;28;20340;-67
2022/09/17 09:23:54;;;;;;;3.10;1.25;;;;;;;;;;5010599;28;20060;-67
2022/09/17 09:26:35;;;;;;;3.38;1.58;;;;;;;;;;5006975;28;20367;-67
2022/09/17 09:29:03;;;;;;;2.72;1.73;;;;;;;;;;5009807;28;20371;-67
2022/09/17 09:31:37;;;;;;;2.47;1.65;;;;;;;;;;5009869;28;20489;-67
2022/09/17 09:34:03;;;;;;;1.77;1.20;;;;;;;;;;5008293;28;20486;-67
2022/09/17 09:36:29;;;;;;;2.00;1.33;;;;;;;;;;5009722;28;20532;-67
2022/09/17 09:39:00;;;;;;;3.22;1.30;;;;;;;;;;5008013;28;20024;-67
2022/09/17 09:41:42;;;;;;;1.55;1.00;;;;;;;;;;5009701;28;20455;-67
2022/09/17 09:44:10;;;;;;;1.27;1.08;;;;;;;;;;5007984;28;20383;-67
2022/09/17 09:47:12;;;;;;;2.55;1.17;;;;;;;;;;5009980;28;20443;-67
2022/09/17 09:50:15;;;;;;;3.63;1.50;;;;;;;;;;5008154;28;20101;-67
2022/09/17 09:52:59;;;;;;;2.13;1.38;;;;;;;;;;5009537;28;20028;-67
2022/09/17 09:55:56;;;;;;;2.80;1.13;;;;;;;;;;5009320;28;20055;-67
2022/09/17 09:58:34;;;;;;;4.95;1.67;;;;;;;;;;4987019;28;20337;-67
2022/09/17 10:00:59;;;;;;;3.20;1.35;;;;;;;;;;5009113;28;20514;-67
2022/09/17 10:03:31;;;;;;;2.95;1.13;;;;;;;;;;5008889;28;20432;-67
2022/09/17 10:06:04;;;;;;;4.07;1.40;;;;;;;;;;5007690;28;20466;-67
2022/09/17 10:08:32;;;;;;;6.53;1.17;;;;;;;;;;5009350;28;20321;-67
2022/09/17 10:11:10;;;;;;;3.20;1.40;;;;;;;;;;5007633;28;20367;-67
2022/09/17 10:13:36;;;;;;;2.83;1.25;;;;;;;;;;5009148;28;20394;-67
2022/09/17 10:16:18;;;;;;;3.08;1.45;;;;;;;;;;5019946;28;20410;-67
2022/09/17 10:18:44;;;;;;;3.78;1.38;;;;;;;;;;5011006;28;20366;-67
2022/09/17 10:21:30;;;;;;;2.58;1.25;;;;;;;;;;5028643;28;20031;-67
2022/09/17 10:23:56;;;;;;;2.55;1.58;;;;;;;;;;5010525;28;20511;-67
2022/09/17 10:26:24;;;;;;;3.97;1.70;;;;;;;;;;5027312;28;20534;-67
2022/09/17 10:28:51;;;;;;;2.25;1.10;;;;;;;;;;5010808;28;20032;-67
2022/09/17 10:31:16;;;;;;;2.03;1.20;;;;;;;;;;5010428;28;20047;-67
2022/09/17 10:33:55;;;;;;;2.92;1.30;;;;;;;;;;5030805;28;20422;-67
2022/09/17 10:36:40;;;;;;;2.50;1.58;;;;;;;;;;5028406;28;20438;-67
2022/09/17 10:39:43;;;;;;;1.15;1.00;;;;;;;;;;5009867;28;20382;-67
2022/09/17 10:42:16;;;;;;;2.25;1.25;;;;;;;;;;5029216;28;20357;-67
2022/09/17 10:44:51;;;;;;;1.65;1.08;;;;;;;;;;5010413;28;20453;-67
2022/09/17 10:47:30;;;;;;;4.20;1.60;;;;;;;;;;5028281;28;20339;-67
2022/09/17 10:49:59;;;;;;;2.95;1.80;;;;;;;;;;5010374;28;20374;-67
2022/09/17 10:52:46;;;;;;;7.53;1.25;;;;;;;;;;5009808;28;20449;-67
2022/09/17 10:55:35;;;;;;;2.28;1.10;;;;;;;;;;5028457;28;20440;-67
2022/09/17 10:58:03;;;;;;;;;;;;;;;;;;5027925;28;20040;-67
2022/09/17 11:00:33;;;;;;;;;;;;;;;;;;5028245;28;20409;-67
2022/09/17 11:03:23;;;;;;;2.28;1.20;;;;;;;;;;5009692;28;20230;-67
2022/09/17 11:06:09;;;;;;;2.03;1.10;;;;;;;;;;5027994;28;20367;-67
2022/09/17 11:08:47;;;;;;;2.28;1.20;;;;;;;;;;5028060;28;20374;-67
2022/09/17 11:11:44;;;;;;;2.70;1.40;;;;;;;;;;5027784;28;20446;-67
2022/09/17 11:14:40;;;;;;;5.75;1.20;;;;;;;;;;5009652;28;20382;-67
2022/09/17 11:17:21;;;;;;;2.35;1.30;;;;;;;;;;4987027;28;20429;-67
2022/09/17 11:20:23;;;;;;;4.22;1.55;;;;;;;;;;4988050;28;20031;-67
2022/09/17 11:23:27;;;;;;;1.67;1.02;;;;;;;;;;4989504;28;20111;-67
2022/09/17 11:25:57;;;;;;;2.67;1.45;;;;;;;;;;4987923;28;20471;-67
2022/09/17 11:28:34;;;;;;;2.03;1.38;;;;;;;;;;4986720;28;20408;-67
2022/09/17 11:31:10;;;;;;;2.15;1.48;;;;;;;;;;4988153;28;20462;-67
2022/09/17 11:33:44;;;;;;;3.00;1.20;;;;;;;;;;4986543;28;20477;-67
2022/09/17 11:36:13;;;;;;;1.73;1.33;;;;;;;;;;4986692;28;20440;-68
2022/09/17 11:38:42;;;;;;;3.15;1.80;;;;;;;;;;4987491;28;20025;-67
2022/09/17 11:41:10;;;;;;;3.30;1.55;;;;;;;;;;4986105;28;20094;-70
2022/09/17 11:43:39;;;;;;;3.03;1.13;;;;;;;;;;4986384;28;20359;-67
2022/09/17 11:46:18;;;;;;;3.83;1.38;;;;;;;;;;4986243;28;20452;-67
2022/09/17 11:48:47;;;;;;;2.92;1.58;;;;;;;;;;4988703;28;20419;-67
2022/09/17 11:51:23;;;;;;;2.33;1.20;;;;;;;;;;4989902;28;20028;-67
2022/09/17 11:54:01;;;;;;;2.15;1.40;;;;;;;;;;4990426;28;20120;-67
2022/09/17 11:56:33;;;;;;;1.52;1.20;;;;;;;;;;4990131;28;20493;-67
2022/09/17 11:59:10;;;;;;;3.22;1.58;;;;;;;;;;4989922;28;20394;-67
2022/09/17 12:01:56;;;;;;;3.08;1.48;;;;;;;;;;4991654;28;20353;-67
2022/09/17 12:04:40;;;;;;;2.80;1.40;;;;;;;;;;4991026;28;20347;-67
2022/09/17 12:07:30;;;;;;;3.10;1.73;;;;;;;;;;4989938;28;20475;-67
2022/09/17 12:10:19;;;;;;;2.05;1.30;;;;;;;;;;4991813;28;20456;-67
2022/09/17 12:12:54;;;;;;;3.95;1.30;;;;;;;;;;5006284;28;20400;-67
2022/09/17 12:15:24;;;;;;;2.92;1.58;;;;;;;;;;4995075;28;20529;-67
2022/09/17 12:18:19;;;;;;;3.00;1.58;;;;;;;;;;5010648;28;20312;-67
2022/09/17 12:20:47;;;;;;;3.00;1.60;;;;;;;;;;5009278;28;20086;-67
2022/09/17 12:23:15;;;;;;;2.42;1.67;;;;;;;;;;5010937;28;20447;-67
2022/09/17 12:25:51;;;;;;;3.50;1.50;;;;;;;;;;5010766;28;20534;-66
2022/09/17 12:28:32;;;;;;;2.40;1.27;;;;;;;;;;5009360;28;20025;-67
2022/09/17 12:31:36;;;;;;;2.88;1.77;;;;;;;;;;5009412;28;20359;-67
2022/09/17 12:34:17;;;;;;;2.35;1.27;;;;;;;;;;5010742;28;20449;-67
2022/09/17 12:37:26;;;;;;;2.70;1.90;;;;;;;;;;5010602;28;20432;-67
2022/09/17 12:40:15;;;;;;;4.22;1.77;;;;;;;;;;4977371;28;20040;-67
2022/09/17 12:42:43;;;;;;;3.75;1.90;;;;;;;;;;5010732;28;20522;-67
2022/09/17 12:45:28;;;;;;;4.38;1.77;;;;;;;;;;5010643;28;20343;-67
2022/09/17 12:48:36;;;;;;;3.42;1.80;;;;;;;;;;4992138;28;20472;-67
2022/09/17 12:51:23;;;;;;;4.90;1.88;;;;;;;;;;5009749;28;20447;-67
2022/09/17 12:53:55;;;;;;;2.28;1.08;;;;;;;;;;5011504;28;20101;-67
2022/09/17 12:57:02;;;;;;;2.85;1.50;;;;;;;;;;5010378;28;20215;-67
2022/09/17 12:59:31;;;;;;;2.67;1.63;;;;;;;;;;4990582;28;20036;-67
2022/09/17 13:02:17;;;;;;;2.65;1.40;;;;;;;;;;5009947;28;20024;-67
2022/09/17 13:05:16;;;;;;;1.98;1.33;;;;;;;;;;5008588;28;20033;-67
2022/09/17 13:08:19;;;;;;;3.08;1.40;;;;;;;;;;5010802;28;20454;-67
2022/09/17 13:10:56;;;;;;;2.30;1.40;;;;;;;;;;5010164;28;20041;-67
2022/09/17 13:13:36;;;;;;;2.75;2.08;;;;;;;;;;5009430;28;20454;-69
2022/09/17 13:16:23;;;;;;;4.00;2.15;;;;;;;;;;5020900;28;20366;-67
2022/09/17 13:18:55;;;;;;;3.95;1.70;;;;;;;;;;5029924;28;20503;-67
2022/09/17 13:21:31;;;;;;;3.80;1.65;;;;;;;;;;5029937;28;20355;-69
2022/09/17 13:23:57;;;;;;;5.78;2.25;;;;;;;;;;5029750;28;20422;-67
2022/09/17 13:26:33;;;;;;;9.27;2.20;;;;;;;;;;5011542;28;20312;-67
2022/09/17 13:28:58;;;;;;;4.00;1.80;;;;;;;;;;5011690;28;20107;-67
2022/09/17 13:31:33;;;;;;;4.07;2.10;;;;;;;;;;5011410;28;20430;-67
2022/09/17 13:33:59;;;;;;;4.50;2.65;;;;;;;;;;5031085;28;20299;-67
2022/09/17 13:36:56;;;;;;;3.78;2.75;;;;;;;;;;5012123;28;20355;-67
2022/09/17 13:39:30;;;;;;;2.78;1.70;;;;;;;;;;5029833;28;20482;-67
2022/09/17 13:42:06;;;;;;;3.20;1.85;;;;;;;;;;5029473;28;20561;-67
2022/09/17 13:44:34;;;;;;;4.78;1.60;;;;;;;;;;5029741;28;20554;-67
2022/09/17 13:47:19;;;;;;;4.60;1.85;;;;;;;;;;5011905;28;20367;-67
2022/09/17 13:50:01;;;;;;;4.30;2.20;;;;;;;;;;5011331;28;20343;-67
2022/09/17 13:52:36;;;;;;;4.30;1.90;;;;;;;;;;5011729;28;20472;-67
2022/09/17 13:55:03;;;;;;;3.47;1.40;;;;;;;;;;5012175;28;20324;-67
2022/09/17 13:57:32;;;;;;;2.70;1.88;;;;;;;;;;5010949;28;20396;-66
2022/09/17 13:59:58;;;;;;;4.03;2.10;;;;;;;;;;5011488;28;20339;-67
2022/09/17 14:02:26;;;;;;;2.40;1.75;;;;;;;;;;5029546;28;20470;-67
2022/09/17 14:04:54;;;;;;;4.97;1.83;;;;;;;;;;5029312;28;20119;-67
2022/09/17 14:07:22;;;;;;;1.93;1.57;;;;;;;;;;5029432;28;20435;-67
2022/09/17 14:09:50;;;;;;;2.05;1.45;;;;;;;;;;5030674;28;20335;-67
2022/09/17 14:12:37;;;;;;;2.25;1.70;;;;;;;;;;5010069;28;20028;-67
2022/09/17 14:15:07;;;;;;;3.65;1.60;;;;;;;;;;5028532;28;20375;-67
2022/09/17 14:17:50;;;;;;;1.95;1.42;;;;;;;;;;5025814;28;20508;-67
2022/09/17 14:20:19;;;;;;;6.30;2.30;;;;;;;;;;5028815;28;20119;-67
2022/09/17 14:22:53;;;;;;;1.70;1.38;;;;;;;;;;5010758;28;20473;-67
2022/09/17 14:25:21;;;;;;;2.20;1.58;;;;;;;;;;5028115;28;20024;-67
2022/09/17 14:27:58;;;;;;;2.45;1.83;;;;;;;;;;5010621;28;20431;-67
2022/09/17 14:30:31;;;;;;;2.67;1.73;;;;;;;;;;5011151;28;20376;-67
2022/09/17 14:33:06;;;;;;;2.78;1.70;;;;;;;;;;5028540;28;20393;-67
2022/09/17 14:35:42;;;;;;;3.60;1.73;;;;;;;;;;5010814;28;20364;-67
2022/09/17 14:38:28;;;;;;;2.97;1.58;;;;;;;;;;5028600;28;20459;-67
2022/09/17 14:41:00;;;;;;;2.22;1.50;;;;;;;;;;5010312;28;20476;-67
2022/09/17 14:43:53;;;;;;;2.63;1.40;;;;;;;;;;5028237;28;20100;-68
2022/09/17 14:46:22;;;;;;;5.13;1.50;;;;;;;;;;5033178;28;20481;-67
2022/09/17 14:48:48;;;;;;;11.35;3.97;;;;;;;;;;5046583;28;20381;-66
2022/09/17 14:54:03;;;;;;;5.60;2.85;;;;;;;;;;5014708;27;1971934;-67
2022/09/17 14:56:31;;;;;;;7.38;2.25;;;;;;;;;;5055281;28;20326;-67
2022/09/17 14:58:57;;;;;;;7.13;1.95;;;;;;;;;;5046371;28;20513;-67
2022/09/17 15:01:25;;;;;;;6.85;2.45;;;;;;;;;;5046828;28;20430;-66
2022/09/17 15:04:11;;;;;;;8.57;3.60;;;;;;;;;;5046464;28;20015;-68
2022/09/17 15:06:36;;;;;;;6.00;2.53;;;;;;;;;;5064793;28;20388;-67
2022/09/17 15:09:02;;;;;;;7.15;1.98;;;;;;;;;;5046681;28;20358;-67
2022/09/17 15:11:29;;;;;;;5.13;2.17;;;;;;;;;;5046563;28;20419;-67
2022/09/17 15:13:55;;;;;;;7.80;2.40;;;;;;;;;;5046862;28;20357;-68
2022/09/17 15:16:29;;;;;;;3.42;1.90;;;;;;;;;;5065490;28;20441;-68